Babcock, Illinois
Current Conditions -  °F | °C
As of 2:52 PM on Thursday 27 Nov 2014 (Local Time) from KMLI Reporting Station
Clear Clear  
Wind Chill:   Ceiling: Unl
Heat Index: 20°   Visibility: 10mi
Dew Point:   Wind: 15mph
Humidity: 50%   Direction: 300°WNW
Pressure: 30.44"   Gusts: NA
Location:  41.5228°N, 90.3951°W
Report Text: KMLI 272052Z 30013KT 10SM CLR M07/M16 A3044 RMK AO2 SLP317 T10671156 53001 $
Loading
Personal Weather Stations






























Interactive Weather Map New forecast layout! Learn more

10-Day Weather Forecast

Advertisements
Track Severe Weather on mobile